createdAt,value
2023-03-28T00:00:40.306Z,4.65
2023-03-28T00:03:08.172Z,3.60
2023-03-28T00:05:37.384Z,7.82
2023-03-28T00:08:06.866Z,6.28
2023-03-28T00:10:35.061Z,9.80
2023-03-28T00:13:02.891Z,6.05
2023-03-28T00:15:31.520Z,8.20
2023-03-28T00:18:00.956Z,6.03
2023-03-28T00:20:30.106Z,7.25
2023-03-28T00:22:57.904Z,9.52
2023-03-28T00:25:27.021Z,6.90
2023-03-28T00:27:57.527Z,3.70
2023-03-28T00:30:25.344Z,7.70
2023-03-28T00:32:53.209Z,4.82
2023-03-28T00:35:20.970Z,5.20
2023-03-28T00:37:50.897Z,5.40
2023-03-28T00:40:18.741Z,6.40
2023-03-28T00:42:48.033Z,4.35
2023-03-28T00:45:15.948Z,4.95
2023-03-28T00:47:51.660Z,4.78
2023-03-28T00:50:24.978Z,4.68
2023-03-28T00:52:57.242Z,6.20
2023-03-28T00:55:28.175Z,5.57
2023-03-28T00:58:05.508Z,7.72
2023-03-28T01:00:34.851Z,5.50
2023-03-28T01:03:06.734Z,6.30
2023-03-28T01:05:36.671Z,4.57
2023-03-28T01:08:08.951Z,6.13
2023-03-28T01:10:37.060Z,6.70
2023-03-28T01:13:06.977Z,6.03
2023-03-28T01:15:34.756Z,6.82
2023-03-28T01:18:03.826Z,5.32
2023-03-28T01:20:53.338Z,8.43
2023-03-28T01:24:11.157Z,5.78
2023-03-28T01:26:49.011Z,4.93
2023-03-28T01:29:46.341Z,8.73
2023-03-28T01:32:38.878Z,7.22
2023-03-28T01:35:34.236Z,5.20
2023-03-28T01:38:14.839Z,5.22
2023-03-28T01:40:53.039Z,10.00
2023-03-28T01:43:36.071Z,4.45
2023-03-28T01:46:12.410Z,7.70
2023-03-28T01:48:51.506Z,5.85
2023-03-28T01:51:31.305Z,5.63
2023-03-28T01:54:06.518Z,5.45
2023-03-28T01:56:41.062Z,8.73
2023-03-28T01:59:16.824Z,5.90
2023-03-28T02:01:50.316Z,5.80
2023-03-28T02:04:21.454Z,7.07
2023-03-28T02:06:52.957Z,10.40
2023-03-28T02:09:24.884Z,6.90
2023-03-28T02:11:58.772Z,7.63
2023-03-28T02:14:29.345Z,4.85
2023-03-28T02:17:04.596Z,4.00
2023-03-28T02:19:35.705Z,7.13
2023-03-28T02:22:10.968Z,5.63
2023-03-28T02:24:40.748Z,4.93
2023-03-28T02:27:09.458Z,4.50
2023-03-28T02:29:39.170Z,9.18
2023-03-28T02:32:07.340Z,4.45
2023-03-28T02:34:35.683Z,5.60
2023-03-28T02:37:17.171Z,5.95
2023-03-28T02:39:58.345Z,6.40
2023-03-28T02:42:50.641Z,6.00
2023-03-28T02:45:40.907Z,7.90
2023-03-28T02:48:18.808Z,7.22
2023-03-28T02:51:06.266Z,6.35
2023-03-28T02:53:44.603Z,5.78
2023-03-28T02:56:19.182Z,6.55
2023-03-28T02:58:53.383Z,8.98
2023-03-28T03:01:21.532Z,10.43
2023-03-28T03:03:50.147Z,6.65
2023-03-28T03:06:18.059Z,6.13
2023-03-28T03:08:45.936Z,6.82
2023-03-28T03:11:15.727Z,6.35
2023-03-28T03:13:44.069Z,9.27
2023-03-28T03:16:11.915Z,8.00
2023-03-28T03:18:39.734Z,5.82
2023-03-28T03:21:08.094Z,6.68
2023-03-28T03:23:36.632Z,4.25
2023-03-28T03:26:04.342Z,6.95
2023-03-28T03:28:33.561Z,11.70
2023-03-28T03:31:02.166Z,7.35
2023-03-28T03:33:31.957Z,7.90
2023-03-28T03:36:00.667Z,9.68
2023-03-28T03:38:28.669Z,6.88
2023-03-28T03:40:56.420Z,5.07
2023-03-28T03:43:27.813Z,5.35
2023-03-28T03:45:57.745Z,8.68
2023-03-28T03:48:26.134Z,6.28
2023-03-28T03:50:54.000Z,4.13
2023-03-28T03:53:21.901Z,8.27
2023-03-28T03:55:49.804Z,6.07
2023-03-28T03:58:18.750Z,8.13
2023-03-28T04:00:49.070Z,7.30
2023-03-28T04:03:25.222Z,4.60
2023-03-28T04:05:55.093Z,9.07
2023-03-28T04:08:23.238Z,7.15
2023-03-28T04:10:51.254Z,5.60
2023-03-28T04:13:18.993Z,6.68
2023-03-28T04:15:48.257Z,9.48
2023-03-28T04:18:17.674Z,7.30
2023-03-28T04:20:53.792Z,6.18
2023-03-28T04:23:25.664Z,8.23
2023-03-28T04:25:55.274Z,7.28
2023-03-28T04:28:25.581Z,6.85
2023-03-28T04:30:54.767Z,6.68
2023-03-28T04:33:25.219Z,6.95
2023-03-28T04:35:57.435Z,8.13
2023-03-28T04:38:27.192Z,6.43
2023-03-28T04:40:57.798Z,8.10
2023-03-28T04:43:26.589Z,9.65
2023-03-28T04:45:55.013Z,7.85
2023-03-28T04:48:23.952Z,7.15
2023-03-28T04:50:52.020Z,6.97
2023-03-28T04:53:27.813Z,6.05
2023-03-28T04:55:55.640Z,7.30
2023-03-28T04:58:24.825Z,9.13
2023-03-28T05:00:55.272Z,7.10
2023-03-28T05:03:25.091Z,13.55
2023-03-28T05:05:54.066Z,6.25
2023-03-28T05:08:25.119Z,5.70
2023-03-28T05:10:53.228Z,9.50
2023-03-28T05:13:23.104Z,12.15
2023-03-28T05:15:50.923Z,7.15
2023-03-28T05:18:18.768Z,7.45
2023-03-28T05:20:46.590Z,7.88
2023-03-28T05:23:14.443Z,7.60
2023-03-28T05:25:43.961Z,6.88
2023-03-28T05:28:11.816Z,11.07
2023-03-28T05:30:40.301Z,12.48
2023-03-28T05:33:08.467Z,7.28
2023-03-28T05:35:37.341Z,7.40
2023-03-28T05:38:05.223Z,9.23
2023-03-28T05:40:33.264Z,13.40
2023-03-28T05:43:02.560Z,10.80
2023-03-28T05:45:30.390Z,7.80
2023-03-28T05:47:58.200Z,8.95
2023-03-28T05:50:27.540Z,13.73
2023-03-28T05:52:55.392Z,10.82
2023-03-28T05:55:23.163Z,8.88
2023-03-28T05:57:50.943Z,9.90
2023-03-28T06:00:21.189Z,9.25
2023-03-28T06:02:50.483Z,10.60
2023-03-28T06:05:19.203Z,10.30
2023-03-28T06:07:47.398Z,6.95
2023-03-28T06:10:16.662Z,9.27
2023-03-28T06:12:46.402Z,7.80
2023-03-28T06:15:14.158Z,10.13
2023-03-28T06:17:43.180Z,8.10
2023-03-28T06:20:12.018Z,10.73
2023-03-28T06:22:40.618Z,13.10
2023-03-28T06:25:09.229Z,12.02
2023-03-28T06:27:36.957Z,12.98
2023-03-28T06:30:05.693Z,13.07
2023-03-28T06:32:33.526Z,13.95
2023-03-28T06:35:02.712Z,11.93
2023-03-28T06:37:30.424Z,20.77
2023-03-28T06:39:58.155Z,9.20
2023-03-28T06:42:25.821Z,13.10
2023-03-28T06:44:53.609Z,11.95
2023-03-28T06:47:21.342Z,9.25
2023-03-28T06:49:48.961Z,13.63
2023-03-28T06:52:18.089Z,20.67
2023-03-28T06:54:48.381Z,19.25
2023-03-28T06:57:16.693Z,28.35
2023-03-28T06:59:44.537Z,27.05
2023-03-28T07:02:12.541Z,36.50
2023-03-28T07:04:40.619Z,21.48
2023-03-28T07:07:09.417Z,13.88
2023-03-28T07:09:38.734Z,5.15
2023-03-28T07:12:06.734Z,8.70
2023-03-28T07:14:34.514Z,9.48
2023-03-28T07:17:02.257Z,12.18
2023-03-28T07:19:30.149Z,9.32
2023-03-28T07:21:57.837Z,12.00
2023-03-28T07:24:25.754Z,13.20
2023-03-28T07:27:11.867Z,12.48
2023-03-28T07:29:42.487Z,9.05
2023-03-28T07:32:10.233Z,8.10
2023-03-28T07:34:41.796Z,10.25
2023-03-28T07:37:10.097Z,11.07
2023-03-28T07:39:39.929Z,5.80
2023-03-28T07:42:11.320Z,7.47
2023-03-28T07:44:41.036Z,11.93
2023-03-28T07:47:10.530Z,8.70
2023-03-28T07:49:39.541Z,6.55
2023-03-28T07:52:07.471Z,13.20
2023-03-28T07:54:35.209Z,5.32
2023-03-28T07:57:02.992Z,5.22
2023-03-28T07:59:32.256Z,6.97
2023-03-28T08:01:59.906Z,5.47
2023-03-28T08:04:27.845Z,7.80
2023-03-28T08:06:56.165Z,5.57
2023-03-28T08:09:23.897Z,7.43
2023-03-28T08:11:51.501Z,4.37
2023-03-28T08:14:19.745Z,8.55
2023-03-28T08:16:48.682Z,10.37
2023-03-28T08:19:16.292Z,5.93
2023-03-28T08:21:43.963Z,11.23
2023-03-28T08:24:17.407Z,8.53
2023-03-28T08:26:50.192Z,3.80
2023-03-28T08:29:17.889Z,3.77
2023-03-28T08:31:45.641Z,5.30
2023-03-28T08:34:14.744Z,5.90
2023-03-28T08:36:42.392Z,6.40
2023-03-28T08:39:10.166Z,8.57
2023-03-28T08:42:06.079Z,8.23
2023-03-28T08:44:51.938Z,5.47
2023-03-28T08:47:23.468Z,6.60
2023-03-28T08:49:57.925Z,8.10
2023-03-28T08:52:26.327Z,6.10
2023-03-28T08:54:57.668Z,5.32
2023-03-28T08:57:28.785Z,7.53
2023-03-28T09:00:08.693Z,6.60
2023-03-28T09:02:36.770Z,4.80
2023-03-28T09:05:23.094Z,3.77
2023-03-28T09:08:00.295Z,4.80
2023-03-28T09:10:36.265Z,3.40
2023-03-28T09:13:24.903Z,4.63
2023-03-28T09:16:09.041Z,5.27
2023-03-28T09:18:51.818Z,5.87
2023-03-28T09:21:29.304Z,5.17
2023-03-28T09:24:12.097Z,5.43
2023-03-28T09:26:45.462Z,3.57
2023-03-28T09:29:17.717Z,6.90
2023-03-28T09:31:48.348Z,7.53
2023-03-28T09:34:23.491Z,4.50
2023-03-28T09:36:55.755Z,7.57
2023-03-28T09:39:36.791Z,5.33
2023-03-28T09:42:10.054Z,2.90
2023-03-28T09:44:51.349Z,4.67
2023-03-28T09:47:21.029Z,3.00
2023-03-28T09:49:52.456Z,3.40
2023-03-28T09:52:34.299Z,3.60
2023-03-28T09:55:02.266Z,5.95
2023-03-28T09:58:01.372Z,6.43
2023-03-28T10:00:29.802Z,4.28
2023-03-28T10:02:57.521Z,3.13
2023-03-28T10:05:36.143Z,2.30
2023-03-28T10:08:07.490Z,4.93
2023-03-28T10:10:35.182Z,7.80
2023-03-28T10:13:05.829Z,3.33
2023-03-28T10:15:50.135Z,2.73
2023-03-28T10:18:21.018Z,3.73
2023-03-28T10:20:51.409Z,5.70
2023-03-28T10:23:19.156Z,2.80
2023-03-28T10:25:51.845Z,5.30
2023-03-28T10:28:28.446Z,2.00
2023-03-28T10:30:59.797Z,4.57
2023-03-28T10:33:31.789Z,6.70
2023-03-28T10:36:02.295Z,2.23
2023-03-28T10:38:38.550Z,5.83
2023-03-28T10:41:10.833Z,4.97
2023-03-28T10:43:41.714Z,3.17
2023-03-28T10:46:15.510Z,4.47
2023-03-28T10:48:49.048Z,3.80
2023-03-28T10:51:22.018Z,3.93
2023-03-28T10:54:20.938Z,3.17
2023-03-28T10:56:53.497Z,3.03
2023-03-28T10:59:35.574Z,2.80
2023-03-28T11:02:18.507Z,5.20
2023-03-28T11:05:00.660Z,3.20
2023-03-28T11:07:36.770Z,4.30
2023-03-28T11:10:15.393Z,6.23
2023-03-28T11:12:57.839Z,3.13
2023-03-28T11:15:35.334Z,4.80
2023-03-28T11:18:21.788Z,6.83
2023-03-28T11:20:56.860Z,6.80
2023-03-28T11:23:37.926Z,13.87
2023-03-28T11:26:10.466Z,9.30
2023-03-28T11:29:01.905Z,8.83
2023-03-28T11:31:35.029Z,3.83
2023-03-28T11:34:08.364Z,3.80
2023-03-28T11:36:43.581Z,3.17
2023-03-28T11:39:18.699Z,12.10
2023-03-28T11:41:49.268Z,6.43
2023-03-28T11:44:23.190Z,8.37
2023-03-28T11:46:59.908Z,4.47
2023-03-28T11:49:33.298Z,8.13
2023-03-28T11:52:07.113Z,3.23
2023-03-28T11:54:41.415Z,5.10
2023-03-28T11:57:15.289Z,4.10
2023-03-28T11:59:46.778Z,7.20
2023-03-28T12:02:30.728Z,7.07
2023-03-28T12:05:03.534Z,4.13
2023-03-28T12:07:37.134Z,6.87
2023-03-28T12:10:13.081Z,7.60
2023-03-28T12:12:55.253Z,9.43
2023-03-28T12:15:35.181Z,5.07
2023-03-28T12:18:11.554Z,10.03
2023-03-28T12:20:43.869Z,4.80
2023-03-28T12:23:18.685Z,4.77
2023-03-28T12:25:51.962Z,4.03
2023-03-28T12:28:28.490Z,11.53
2023-03-28T12:31:06.035Z,5.90
2023-03-28T12:33:46.841Z,4.27
2023-03-28T12:36:20.476Z,7.10
2023-03-28T12:38:56.185Z,5.83
2023-03-28T12:41:28.729Z,4.73
2023-03-28T12:43:59.381Z,8.13
2023-03-28T12:46:34.041Z,3.20
2023-03-28T12:49:06.898Z,4.40
2023-03-28T12:51:37.593Z,3.93
2023-03-28T12:54:22.203Z,4.20
2023-03-28T12:57:02.440Z,4.63
2023-03-28T13:00:06.296Z,3.73
2023-03-28T13:02:45.169Z,4.00
2023-03-28T13:05:22.009Z,6.03
2023-03-28T13:08:00.384Z,7.10
2023-03-28T13:10:37.556Z,6.77
2023-03-28T13:13:17.703Z,5.10
2023-03-28T13:16:02.906Z,3.83
2023-03-28T13:18:33.824Z,5.93
2023-03-28T13:21:07.174Z,4.83
2023-03-28T13:23:38.388Z,3.20
2023-03-28T13:26:07.752Z,4.83
2023-03-28T13:28:42.886Z,8.37
2023-03-28T13:31:15.500Z,5.03
2023-03-28T13:34:01.769Z,9.90
2023-03-28T13:36:33.481Z,6.27
2023-03-28T13:39:09.469Z,3.40
2023-03-28T13:41:56.579Z,6.43
2023-03-28T13:44:30.818Z,6.20
2023-03-28T13:46:58.632Z,8.80
2023-03-28T13:49:40.652Z,7.83
2023-03-28T13:52:14.285Z,4.83
2023-03-28T13:54:42.092Z,4.70
2023-03-28T13:57:17.612Z,3.77
2023-03-28T13:59:53.145Z,9.23
2023-03-28T14:02:23.371Z,4.30
2023-03-28T14:04:54.180Z,4.50
2023-03-28T14:07:27.453Z,4.73
2023-03-28T14:09:56.153Z,4.10
2023-03-28T14:12:27.412Z,3.30
2023-03-28T14:14:57.314Z,7.43
2023-03-28T14:17:27.854Z,5.90
2023-03-28T14:19:58.515Z,4.50
2023-03-28T14:22:29.404Z,3.90
2023-03-28T14:25:00.726Z,4.90
2023-03-28T14:27:36.427Z,5.53
2023-03-28T14:30:17.252Z,4.93
2023-03-28T14:32:57.317Z,5.57
2023-03-28T14:35:27.303Z,13.27
2023-03-28T14:37:58.371Z,8.87
2023-03-28T14:40:32.932Z,5.20
2023-03-28T14:43:04.369Z,4.10
2023-03-28T14:45:36.644Z,4.47
2023-03-28T14:48:07.724Z,12.90
2023-03-28T14:50:38.179Z,3.17
2023-03-28T14:53:09.623Z,8.13
2023-03-28T14:55:42.018Z,5.37
2023-03-28T14:58:13.868Z,4.00
2023-03-28T15:00:43.908Z,3.93
2023-03-28T15:03:15.477Z,4.60
2023-03-28T15:05:45.626Z,3.83
2023-03-28T15:08:25.404Z,3.70
2023-03-28T15:10:54.373Z,2.07
2023-03-28T15:13:27.139Z,4.93
2023-03-28T15:15:57.783Z,4.17
2023-03-28T15:18:29.188Z,4.97
2023-03-28T15:21:00.080Z,4.60
2023-03-28T15:23:34.338Z,5.47
2023-03-28T15:26:04.623Z,5.30
2023-03-28T15:28:33.112Z,3.87
2023-03-28T15:31:03.879Z,3.93
2023-03-28T15:33:35.653Z,4.63
2023-03-28T15:36:22.695Z,3.87
2023-03-28T15:38:59.427Z,6.33
2023-03-28T15:41:29.043Z,7.33
2023-03-28T15:44:13.954Z,5.97
2023-03-28T15:46:42.107Z,3.90
2023-03-28T15:49:12.357Z,3.07
2023-03-28T15:51:49.224Z,2.90
2023-03-28T15:54:30.374Z,3.00
2023-03-28T15:57:01.605Z,3.73
2023-03-28T15:59:35.636Z,3.43
2023-03-28T16:02:21.323Z,2.93
2023-03-28T16:04:59.560Z,2.70
2023-03-28T16:07:27.777Z,5.40
2023-03-28T16:09:56.839Z,5.03
2023-03-28T16:12:25.869Z,3.23
2023-03-28T16:14:54.228Z,4.63
2023-03-28T16:17:24.915Z,6.80
2023-03-28T16:19:52.972Z,4.43
2023-03-28T16:22:21.437Z,3.43
2023-03-28T16:24:49.291Z,2.93
2023-03-28T16:27:18.850Z,5.53
2023-03-28T16:29:46.817Z,4.60
2023-03-28T16:32:19.039Z,7.40
2023-03-28T16:34:46.737Z,6.47
2023-03-28T16:37:14.454Z,3.23
2023-03-28T16:39:42.168Z,7.30
2023-03-28T16:42:10.047Z,3.40
2023-03-28T16:44:42.367Z,6.17
2023-03-28T16:47:10.769Z,3.70
2023-03-28T16:49:38.432Z,8.60
2023-03-28T16:52:07.528Z,4.55
2023-03-28T16:54:35.159Z,4.95
2023-03-28T16:57:04.262Z,8.00
2023-03-28T16:59:44.725Z,5.90
2023-03-28T17:03:59.661Z,5.85
2023-03-28T17:05:13.093Z,6.88
2023-03-28T17:07:40.861Z,8.32
2023-03-28T17:10:09.942Z,8.18
2023-03-28T17:12:42.546Z,4.50
2023-03-28T17:15:12.242Z,4.47
2023-03-28T17:17:40.231Z,4.63
2023-03-28T17:20:09.425Z,5.05
2023-03-28T17:22:37.435Z,6.18
2023-03-28T17:25:05.695Z,7.47
2023-03-28T17:27:33.589Z,9.82
2023-03-28T17:30:01.340Z,4.50
2023-03-28T17:32:33.701Z,10.48
2023-03-28T17:35:01.700Z,10.50
2023-03-28T17:37:29.397Z,11.75
2023-03-28T17:39:57.030Z,10.82
2023-03-28T17:42:24.797Z,8.00
2023-03-28T17:44:54.537Z,5.15
2023-03-28T17:47:22.255Z,6.40
2023-03-28T17:50:00.462Z,12.90
2023-03-28T17:52:29.742Z,6.90
2023-03-28T17:54:58.493Z,6.30
2023-03-28T17:57:26.606Z,5.75
2023-03-28T17:59:54.540Z,8.52
2023-03-28T18:02:22.523Z,9.80
2023-03-28T18:04:51.158Z,8.60
2023-03-28T18:07:21.193Z,4.90
2023-03-28T18:09:48.885Z,3.83
2023-03-28T18:12:17.488Z,7.57
2023-03-28T18:14:45.741Z,8.73
2023-03-28T18:17:13.670Z,5.93
2023-03-28T18:19:41.367Z,5.95
2023-03-28T18:22:11.798Z,10.00
2023-03-28T18:24:40.843Z,7.70
2023-03-28T18:27:08.536Z,8.32
2023-03-28T18:29:36.187Z,5.63
2023-03-28T18:32:03.918Z,7.65
2023-03-28T18:34:31.753Z,7.60
2023-03-28T18:37:00.238Z,8.00
2023-03-28T18:39:27.951Z,5.43
2023-03-28T18:41:57.125Z,6.43
2023-03-28T18:44:28.772Z,5.40
2023-03-28T18:46:56.571Z,6.65
2023-03-28T18:49:24.312Z,8.52
2023-03-28T18:51:52.581Z,9.48
2023-03-28T18:54:20.420Z,10.07
2023-03-28T18:56:48.288Z,10.25
2023-03-28T18:59:17.589Z,7.90
2023-03-28T19:01:51.205Z,10.27
2023-03-28T19:04:19.717Z,6.43
2023-03-28T19:06:47.535Z,8.60
2023-03-28T19:09:15.178Z,5.70
2023-03-28T19:11:42.970Z,8.20
2023-03-28T19:14:11.023Z,8.43
2023-03-28T19:16:40.251Z,6.32
2023-03-28T19:19:08.717Z,9.05
2023-03-28T19:21:36.397Z,16.40
2023-03-28T19:24:04.125Z,9.15
2023-03-28T19:26:31.766Z,9.98
2023-03-28T19:28:59.774Z,9.93
2023-03-28T19:31:27.441Z,6.88
2023-03-28T19:33:56.540Z,8.07
2023-03-28T19:36:24.440Z,9.65
2023-03-28T19:38:52.100Z,5.30
2023-03-28T19:41:23.751Z,9.80
2023-03-28T19:43:52.118Z,8.20
2023-03-28T19:46:26.108Z,10.88
2023-03-28T19:48:58.072Z,11.38
2023-03-28T19:51:25.978Z,6.50
2023-03-28T19:53:54.420Z,12.02
2023-03-28T19:56:22.952Z,7.15
2023-03-28T19:58:50.876Z,9.20
2023-03-28T20:01:18.894Z,7.28
2023-03-28T20:03:47.820Z,6.80
2023-03-28T20:06:17.506Z,7.43
2023-03-28T20:08:45.401Z,6.68
2023-03-28T20:11:15.076Z,6.15
2023-03-28T20:13:43.024Z,7.65
2023-03-28T20:16:13.003Z,6.80
2023-03-28T20:18:41.829Z,6.30
2023-03-28T20:21:12.502Z,5.05
2023-03-28T20:23:41.867Z,4.95
2023-03-28T20:26:15.347Z,4.97
2023-03-28T20:28:43.123Z,4.10
2023-03-28T20:31:12.809Z,6.72
2023-03-28T20:33:40.850Z,5.28
2023-03-28T20:36:09.020Z,5.10
2023-03-28T20:38:36.808Z,5.00
2023-03-28T20:41:10.572Z,4.88
2023-03-28T20:43:40.659Z,6.70
2023-03-28T20:46:09.773Z,5.10
2023-03-28T20:48:37.527Z,5.20
2023-03-28T20:51:06.706Z,4.30
2023-03-28T20:53:34.894Z,7.32
2023-03-28T20:56:04.816Z,7.40
2023-03-28T20:58:34.955Z,9.40
2023-03-28T21:01:04.244Z,7.70
2023-03-28T21:03:46.684Z,3.45
2023-03-28T21:06:15.837Z,5.57
2023-03-28T21:08:45.937Z,7.53
2023-03-28T21:11:14.532Z,7.57
2023-03-28T21:13:44.442Z,4.05
2023-03-28T21:16:14.199Z,5.70
2023-03-28T21:18:42.196Z,5.18
2023-03-28T21:21:10.885Z,5.65
2023-03-28T21:23:39.993Z,5.35
2023-03-28T21:26:13.845Z,5.30
2023-03-28T21:28:43.384Z,5.95
2023-03-28T21:31:13.836Z,4.30
2023-03-28T21:33:42.677Z,5.82
2023-03-28T21:36:12.436Z,3.20
2023-03-28T21:38:40.868Z,5.20
2023-03-28T21:41:08.826Z,6.25
2023-03-28T21:43:36.472Z,3.33
2023-03-28T21:46:07.056Z,4.55
2023-03-28T21:48:34.962Z,7.43
2023-03-28T21:51:03.151Z,5.18
2023-03-28T21:53:33.045Z,6.20
2023-03-28T21:56:01.206Z,3.17
2023-03-28T21:58:31.926Z,4.60
2023-03-28T22:01:00.078Z,3.92
2023-03-28T22:03:29.457Z,4.60
2023-03-28T22:05:57.262Z,12.15
2023-03-28T22:08:25.220Z,4.38
2023-03-28T22:10:55.042Z,5.00
2023-03-28T22:13:23.954Z,4.00
2023-03-28T22:15:53.035Z,3.35
2023-03-28T22:18:21.351Z,3.13
2023-03-28T22:20:58.446Z,6.70
2023-03-28T22:23:26.381Z,6.50
2023-03-28T22:25:56.517Z,6.63
2023-03-28T22:28:24.991Z,4.40
2023-03-28T22:30:55.087Z,6.00
2023-03-28T22:33:23.464Z,5.95
2023-03-28T22:35:52.990Z,3.17
2023-03-28T22:38:20.732Z,3.90
2023-03-28T22:40:48.453Z,4.05
2023-03-28T22:43:16.391Z,3.83
2023-03-28T22:45:44.309Z,5.45
2023-03-28T22:48:14.561Z,7.28
2023-03-28T22:50:44.072Z,8.63
2023-03-28T22:53:14.191Z,4.35
2023-03-28T22:55:42.836Z,4.40
2023-03-28T22:58:10.508Z,6.05
2023-03-28T23:00:38.838Z,4.68
2023-03-28T23:03:08.094Z,3.42
2023-03-28T23:05:36.220Z,3.35
2023-03-28T23:08:05.517Z,7.80
2023-03-28T23:10:35.150Z,4.07
2023-03-28T23:13:02.906Z,4.03
2023-03-28T23:15:30.665Z,4.35
2023-03-28T23:17:58.614Z,5.95
2023-03-28T23:20:29.539Z,4.47
2023-03-28T23:22:57.499Z,3.85
2023-03-28T23:25:25.939Z,3.08
2023-03-28T23:27:54.962Z,5.00
2023-03-28T23:30:22.604Z,4.47
2023-03-28T23:32:50.695Z,5.38
2023-03-28T23:35:22.278Z,4.07
2023-03-28T23:37:53.000Z,4.15
2023-03-28T23:40:24.439Z,6.70
2023-03-28T23:42:52.162Z,4.50
2023-03-28T23:45:21.171Z,3.33
2023-03-28T23:47:48.814Z,3.35
2023-03-28T23:50:17.112Z,6.15
2023-03-28T23:52:44.829Z,4.10
2023-03-28T23:55:12.513Z,4.60
2023-03-28T23:57:40.203Z,4.10
